createdAt,value
2015-04-23T06:40:01.160Z,0
2015-04-23T06:40:11.582Z,0
2015-04-23T06:40:21.941Z,0
2015-04-23T06:40:33.082Z,0
2015-04-23T06:40:43.444Z,0
2015-04-23T06:40:53.928Z,0
2015-04-23T06:41:04.319Z,0
2015-04-23T06:41:14.741Z,0
2015-04-23T06:41:25.631Z,0
2015-04-23T06:41:36.053Z,0
2015-04-23T06:41:46.525Z,0
2015-04-23T06:41:56.947Z,0
2015-04-23T06:42:07.322Z,0
2015-04-23T06:42:17.744Z,0
2015-04-23T06:42:28.134Z,0
2015-04-23T06:42:38.525Z,0
2015-04-23T06:42:48.902Z,0
2015-04-23T06:42:59.293Z,0
2015-04-23T06:43:09.683Z,0
2015-04-23T06:43:20.027Z,0
2015-04-23T06:43:30.418Z,0
2015-04-23T06:43:40.777Z,0
2015-04-23T06:43:51.154Z,0
2015-04-23T06:44:01.545Z,0
2015-04-23T06:44:11.920Z,0
2015-04-23T06:44:22.279Z,0
2015-04-23T06:44:32.701Z,0
2015-04-23T06:44:43.482Z,0
2015-04-23T06:44:53.890Z,0
2015-04-23T06:45:04.250Z,0
2015-04-23T06:45:15.172Z,0
2015-04-23T06:45:25.562Z,0
2015-04-23T06:45:35.953Z,0
2015-04-23T06:45:46.331Z,0
2015-04-23T06:45:56.690Z,0
2015-04-23T06:46:07.065Z,0
2015-04-23T06:46:17.456Z,0
2015-04-23T06:46:27.878Z,0
2015-04-23T06:46:38.284Z,0
2015-04-23T06:46:48.708Z,0
2015-04-23T06:46:59.114Z,0
2015-04-23T06:47:09.536Z,0
2015-04-23T06:47:19.989Z,0
2015-04-23T06:47:30.427Z,0
2015-04-23T06:47:41.458Z,0
2015-04-23T06:47:51.914Z,0
2015-04-23T06:48:02.320Z,0
2015-04-23T06:48:12.711Z,0
2015-04-23T06:48:23.023Z,0
2015-04-23T06:48:33.398Z,0
2015-04-23T06:48:43.789Z,0
2015-04-23T06:48:54.259Z,0
2015-04-23T06:49:04.681Z,0
2015-04-23T06:49:15.603Z,0
2015-04-23T06:49:29.040Z,0
2015-04-23T06:49:39.415Z,0
2015-04-23T06:49:49.856Z,0
2015-04-23T06:50:00.262Z,0
2015-04-23T06:50:10.668Z,0
2015-04-23T06:50:21.074Z,0
2015-04-23T06:50:31.496Z,0
2015-04-23T06:50:41.902Z,0
2015-04-23T06:50:52.373Z,0
2015-04-23T06:51:02.764Z,0
2015-04-23T06:51:13.233Z,0
2015-04-23T06:51:23.639Z,0
2015-04-23T06:51:38.248Z,0
2015-04-23T06:51:48.611Z,0
2015-04-23T06:51:58.986Z,0
2015-04-23T06:52:09.392Z,0
2015-04-23T06:52:19.782Z,0
2015-04-23T06:52:30.751Z,0
2015-04-23T06:52:41.142Z,0
2015-04-23T06:52:51.753Z,0
2015-04-23T06:53:02.191Z,0
2015-04-23T06:53:12.581Z,0
2015-04-23T06:53:22.988Z,0
2015-04-23T06:53:33.378Z,0
2015-04-23T06:53:43.769Z,0
2015-04-23T06:53:54.208Z,0
2015-04-23T06:54:04.708Z,262090
2015-04-23T06:54:15.099Z,5
2015-04-23T06:54:25.521Z,367
2015-04-23T06:54:35.943Z,345
2015-04-23T06:54:46.365Z,406
2015-04-23T06:54:56.774Z,411
2015-04-23T06:55:07.196Z,453
2015-04-23T06:55:17.618Z,363
2015-04-23T06:55:28.055Z,340
2015-04-23T06:55:38.508Z,203
2015-04-23T06:55:49.008Z,261902
2015-04-23T06:56:00.151Z,261711
2015-04-23T06:56:10.729Z,261623
2015-04-23T06:56:21.229Z,261392
2015-04-23T06:56:31.838Z,261171
2015-04-23T06:56:43.041Z,261131
2015-04-23T06:56:53.543Z,261250
2015-04-23T06:57:04.012Z,261459
2015-04-23T06:57:14.918Z,261643
2015-04-23T06:57:25.387Z,261748
2015-04-23T06:57:35.872Z,261659
2015-04-23T06:57:46.325Z,261730
2015-04-23T06:57:56.765Z,261658
2015-04-23T06:58:07.218Z,261710
2015-04-23T06:58:18.203Z,261895
2015-04-23T06:58:28.703Z,262047
2015-04-23T06:58:39.140Z,50
2015-04-23T06:58:49.734Z,180
2015-04-23T06:59:00.173Z,173
2015-04-23T06:59:10.627Z,33
2015-04-23T06:59:21.048Z,288
2015-04-23T06:59:31.564Z,261984
2015-04-23T06:59:42.486Z,261950
2015-04-23T06:59:52.972Z,261854
2015-04-23T07:00:03.441Z,261810
2015-04-23T07:00:13.941Z,261701
2015-04-23T07:00:24.410Z,261689
2015-04-23T07:00:35.269Z,261742
2015-04-23T07:00:46.332Z,261717
2015-04-23T07:00:57.772Z,261761
2015-04-23T07:01:08.585Z,261867
2015-04-23T07:01:19.100Z,261983
2015-04-23T07:01:29.538Z,6
2015-04-23T07:01:40.007Z,182
2015-04-23T07:01:50.413Z,330
2015-04-23T07:02:00.852Z,395
2015-04-23T07:02:11.321Z,352
2015-04-23T07:02:21.727Z,254
2015-04-23T07:02:32.149Z,121
2015-04-23T07:02:43.524Z,64
2015-04-23T07:02:54.604Z,262125
2015-04-23T07:03:05.104Z,262041
2015-04-23T07:03:15.589Z,261986
2015-04-23T07:03:26.089Z,262023
2015-04-23T07:03:36.557Z,262090
2015-04-23T07:03:47.042Z,262027
2015-04-23T07:03:57.747Z,261863
2015-04-23T07:04:08.263Z,261761
2015-04-23T07:04:18.731Z,261963
2015-04-23T07:04:29.216Z,262050
2015-04-23T07:04:39.653Z,20
2015-04-23T07:04:50.622Z,15
2015-04-23T07:05:01.078Z,82
2015-04-23T07:05:11.828Z,154
2015-04-23T07:05:22.250Z,267
2015-04-23T07:05:32.687Z,444
2015-04-23T07:05:43.141Z,728
2015-04-23T07:05:53.578Z,976
2015-04-23T07:06:04.033Z,859
2015-04-23T07:06:15.080Z,887
2015-04-23T07:06:25.549Z,1014
2015-04-23T07:06:35.986Z,814
2015-04-23T07:06:46.455Z,890
2015-04-23T07:06:56.927Z,971
2015-04-23T07:07:08.005Z,1085
2015-04-23T07:07:18.505Z,1087
2015-04-23T07:07:28.911Z,956
2015-04-23T07:07:39.317Z,862
2015-04-23T07:07:49.771Z,789
2015-04-23T07:08:00.226Z,807
2015-04-23T07:08:10.648Z,789
2015-04-23T07:08:21.054Z,722
2015-04-23T07:08:31.460Z,537
2015-04-23T07:08:41.882Z,389
2015-04-23T07:08:52.413Z,276
2015-04-23T07:09:02.868Z,345
2015-04-23T07:09:13.290Z,214
2015-04-23T07:09:23.743Z,237
2015-04-23T07:09:34.212Z,479
2015-04-23T07:09:44.665Z,670
2015-04-23T07:09:55.087Z,733
2015-04-23T07:10:05.527Z,726
2015-04-23T07:10:15.995Z,758
2015-04-23T07:10:26.433Z,700
2015-04-23T07:10:36.886Z,699
2015-04-23T07:10:47.308Z,745
2015-04-23T07:10:57.761Z,675
2015-04-23T07:11:08.139Z,653
2015-04-23T07:11:18.686Z,720
2015-04-23T07:11:29.155Z,894
2015-04-23T07:11:39.623Z,943
2015-04-23T07:11:50.092Z,828
2015-04-23T07:12:00.517Z,804
2015-04-23T07:12:10.970Z,789
2015-04-23T07:12:21.470Z,813
2015-04-23T07:12:31.954Z,885
2015-04-23T07:12:42.376Z,914
2015-04-23T07:12:52.845Z,860
2015-04-23T07:13:03.299Z,779
2015-04-23T07:13:13.721Z,683
2015-04-23T07:13:24.143Z,620
2015-04-23T07:13:34.565Z,665
2015-04-23T07:13:44.971Z,796
2015-04-23T07:13:55.393Z,890
2015-04-23T07:14:05.865Z,854
2015-04-23T07:14:16.287Z,840
2015-04-23T07:14:26.724Z,786
2015-04-23T07:14:37.146Z,774
2015-04-23T07:14:47.708Z,992
2015-04-23T07:14:58.193Z,962
2015-04-23T07:15:08.585Z,975
2015-04-23T07:15:19.226Z,992
2015-04-23T07:15:29.695Z,933
2015-04-23T07:15:40.164Z,861
2015-04-23T07:15:50.617Z,793
